Echola, Alabama
Current Conditions -  °F | °C
As of 11:53 AM on Friday 24 Oct 2014 (Local Time) from KTCL Reporting Station
Clear Clear  
Wind Chill: 71°   Ceiling: Unl
Heat Index: 71°   Visibility: 10mi
Dew Point: 43°   Wind: 7mph
Humidity: 36%   Direction: NA
Pressure: 30.1"   Gusts: NA
Location:  33.34°N, 87.79°W
Report Text: KTCL 241653Z VRB06KT 10SM CLR 22/06 A3010 RMK AO2 SLP189 T02170061
Loading
Personal Weather Stations






























Interactive Weather Map New forecast layout! Learn more

10-Day Weather Forecast

Advertisements
Track Severe Weather on mobile